sensor_id;sensor_type;location;lat;lon;timestamp;pressure;altitude;pressure_sealevel;temperature;humidity
44825;BME280;30542;47.928;2.138;2023-02-13T00:03:44;102125.25;;;19.38;44.43
44825;BME280;30542;47.928;2.138;2023-02-13T00:08:45;102129.19;;;19.36;44.26
44825;BME280;30542;47.928;2.138;2023-02-13T00:13:46;102123.66;;;19.31;44.25
44825;BME280;30542;47.928;2.138;2023-02-13T00:18:46;102117.13;;;19.27;44.26
44825;BME280;30542;47.928;2.138;2023-02-13T00:23:47;102120.22;;;19.24;44.17
44825;BME280;30542;47.928;2.138;2023-02-13T00:28:47;102115.50;;;19.19;44.29
44825;BME280;30542;47.928;2.138;2023-02-13T00:33:48;102118.63;;;19.16;44.31
44825;BME280;30542;47.928;2.138;2023-02-13T00:38:49;102114.16;;;19.03;44.12
44825;BME280;30542;47.928;2.138;2023-02-13T00:43:49;102121.31;;;19.09;44.18
44825;BME280;30542;47.928;2.138;2023-02-13T00:48:50;102123.59;;;19.06;43.97
44825;BME280;30542;47.928;2.138;2023-02-13T00:53:50;102114.38;;;19.02;44.26
44825;BME280;30542;47.928;2.138;2023-02-13T00:58:51;102114.78;;;18.99;44.12
44825;BME280;30542;47.928;2.138;2023-02-13T01:03:51;102116.88;;;18.97;44.21
44825;BME280;30542;47.928;2.138;2023-02-13T01:08:51;102116.91;;;18.90;44.11
44825;BME280;30542;47.928;2.138;2023-02-13T01:13:52;102117.94;;;18.89;44.36
44825;BME280;30542;47.928;2.138;2023-02-13T01:18:53;102116.13;;;18.83;44.10
44825;BME280;30542;47.928;2.138;2023-02-13T01:23:53;102117.13;;;18.82;44.13
44825;BME280;30542;47.928;2.138;2023-02-13T01:28:54;102122.91;;;18.79;44.11
44825;BME280;30542;47.928;2.138;2023-02-13T01:33:56;102121.25;;;18.78;44.16
44825;BME280;30542;47.928;2.138;2023-02-13T01:38:57;102135.03;;;18.75;44.28
44825;BME280;30542;47.928;2.138;2023-02-13T01:43:59;102135.03;;;18.75;44.04
44825;BME280;30542;47.928;2.138;2023-02-13T01:49:13;102140.56;;;18.73;44.10
44825;BME280;30542;47.928;2.138;2023-02-13T01:54:18;102143.25;;;18.73;44.34
44825;BME280;30542;47.928;2.138;2023-02-13T01:59:33;102134.59;;;18.78;44.25
44825;BME280;30542;47.928;2.138;2023-02-13T02:04:38;102140.34;;;18.81;44.16
44825;BME280;30542;47.928;2.138;2023-02-13T02:09:42;102131.69;;;18.86;44.24
44825;BME280;30542;47.928;2.138;2023-02-13T02:14:44;102125.53;;;18.85;43.81
44825;BME280;30542;47.928;2.138;2023-02-13T02:35:58;102114.75;;;19.12;43.21
44825;BME280;30542;47.928;2.138;2023-02-13T02:41:04;102112.19;;;19.24;43.16
44825;BME280;30542;47.928;2.138;2023-02-13T02:56:29;102109.22;;;19.38;42.18
44825;BME280;30542;47.928;2.138;2023-02-13T03:01:32;102104.66;;;19.46;42.32
44825;BME280;30542;47.928;2.138;2023-02-13T03:06:55;102111.38;;;19.55;41.94
44825;BME280;30542;47.928;2.138;2023-02-13T03:11:57;102096.16;;;19.62;41.92
44825;BME280;30542;47.928;2.138;2023-02-13T03:17:17;102103.91;;;19.70;41.79
44825;BME280;30542;47.928;2.138;2023-02-13T03:43:57;102090.66;;;20.00;40.85
44825;BME280;30542;47.928;2.138;2023-02-13T03:49:03;102099.06;;;20.04;40.53
44825;BME280;30542;47.928;2.138;2023-02-13T03:54:52;102084.88;;;20.03;40.68
44825;BME280;30542;47.928;2.138;2023-02-13T04:00:15;102089.94;;;20.11;40.49
44825;BME280;30542;47.928;2.138;2023-02-13T04:05:21;102098.31;;;20.15;40.27
44825;BME280;30542;47.928;2.138;2023-02-13T04:10:24;102107.78;;;20.18;40.22
44825;BME280;30542;47.928;2.138;2023-02-13T04:16:05;102100.38;;;20.20;40.26
44825;BME280;30542;47.928;2.138;2023-02-13T04:21:07;102104.06;;;20.19;40.35
44825;BME280;30542;47.928;2.138;2023-02-13T04:26:14;102114.69;;;20.25;40.30
44825;BME280;30542;47.928;2.138;2023-02-13T04:31:16;102110.16;;;20.26;40.24
44825;BME280;30542;47.928;2.138;2023-02-13T04:36:16;102101.09;;;20.27;40.17
44825;BME280;30542;47.928;2.138;2023-02-13T04:41:16;102092.25;;;20.26;40.05
44825;BME280;30542;47.928;2.138;2023-02-13T04:46:17;102096.34;;;20.29;39.94
44825;BME280;30542;47.928;2.138;2023-02-13T04:51:18;102096.94;;;20.31;40.12
44825;BME280;30542;47.928;2.138;2023-02-13T04:56:18;102107.44;;;20.32;39.84
44825;BME280;30542;47.928;2.138;2023-02-13T05:01:18;102105.19;;;20.29;39.86
44825;BME280;30542;47.928;2.138;2023-02-13T05:06:19;102108.00;;;20.34;39.71
44825;BME280;30542;47.928;2.138;2023-02-13T05:11:19;102110.69;;;20.34;39.71
44825;BME280;30542;47.928;2.138;2023-02-13T05:16:19;102108.25;;;20.33;39.60
44825;BME280;30542;47.928;2.138;2023-02-13T05:21:20;102100.03;;;20.28;39.80
44825;BME280;30542;47.928;2.138;2023-02-13T05:26:39;102097.38;;;20.28;40.86
44825;BME280;30542;47.928;2.138;2023-02-13T05:31:40;102091.22;;;20.27;41.05
44825;BME280;30542;47.928;2.138;2023-02-13T05:36:40;102087.72;;;20.27;40.91
44825;BME280;30542;47.928;2.138;2023-02-13T05:41:42;102090.53;;;20.32;41.36
44825;BME280;30542;47.928;2.138;2023-02-13T05:46:43;102072.72;;;20.26;41.76
44825;BME280;30542;47.928;2.138;2023-02-13T05:51:44;102082.31;;;20.33;41.51
44825;BME280;30542;47.928;2.138;2023-02-13T05:56:46;102099.31;;;20.39;41.14
44825;BME280;30542;47.928;2.138;2023-02-13T06:01:46;102100.38;;;20.38;40.93
44825;BME280;30542;47.928;2.138;2023-02-13T06:06:46;102097.31;;;20.34;41.16
44825;BME280;30542;47.928;2.138;2023-02-13T06:11:47;102095.59;;;20.40;41.32
44825;BME280;30542;47.928;2.138;2023-02-13T06:16:48;102090.84;;;20.42;41.23
44825;BME280;30542;47.928;2.138;2023-02-13T06:21:48;102090.84;;;20.42;40.95
44825;BME280;30542;47.928;2.138;2023-02-13T06:26:48;102089.78;;;20.43;41.33
44825;BME280;30542;47.928;2.138;2023-02-13T06:31:49;102095.97;;;20.44;41.29
44825;BME280;30542;47.928;2.138;2023-02-13T06:36:49;102096.06;;;20.37;41.30
44825;BME280;30542;47.928;2.138;2023-02-13T06:41:50;102110.84;;;20.40;41.20
44825;BME280;30542;47.928;2.138;2023-02-13T06:46:50;102119.84;;;20.45;41.14
44825;BME280;30542;47.928;2.138;2023-02-13T06:51:50;102137.53;;;20.46;41.28
44825;BME280;30542;47.928;2.138;2023-02-13T06:56:51;102122.28;;;20.47;41.23
44825;BME280;30542;47.928;2.138;2023-02-13T07:01:51;102131.78;;;20.49;41.12
44825;BME280;30542;47.928;2.138;2023-02-13T07:06:54;102132.78;;;20.48;40.77
44825;BME280;30542;47.928;2.138;2023-02-13T07:11:54;102139.84;;;20.43;41.06
44825;BME280;30542;47.928;2.138;2023-02-13T07:16:55;102161.69;;;20.40;40.99
44825;BME280;30542;47.928;2.138;2023-02-13T07:21:56;102154.94;;;20.37;40.90
44825;BME280;30542;47.928;2.138;2023-02-13T07:26:56;102164.81;;;20.36;40.62
44825;BME280;30542;47.928;2.138;2023-02-13T07:31:57;102161.69;;;20.40;40.67
44825;BME280;30542;47.928;2.138;2023-02-13T07:36:57;102169.66;;;20.46;41.24
44825;BME280;30542;47.928;2.138;2023-02-13T07:41:57;102171.69;;;20.51;41.43
44825;BME280;30542;47.928;2.138;2023-02-13T07:46:58;102175.63;;;20.48;41.80
44825;BME280;30542;47.928;2.138;2023-02-13T07:52:00;102175.63;;;20.48;41.50
44825;BME280;30542;47.928;2.138;2023-02-13T07:57:00;102171.72;;;20.44;41.85
44825;BME280;30542;47.928;2.138;2023-02-13T08:02:00;102184.53;;;20.42;42.46
44825;BME280;30542;47.928;2.138;2023-02-13T08:07:01;102187.91;;;20.31;43.05
44825;BME280;30542;47.928;2.138;2023-02-13T08:12:02;102185.03;;;20.32;43.13
44825;BME280;30542;47.928;2.138;2023-02-13T08:17:02;102184.38;;;20.37;43.41
44825;BME280;30542;47.928;2.138;2023-02-13T08:22:03;102162.19;;;20.30;43.25
44825;BME280;30542;47.928;2.138;2023-02-13T08:27:03;102190.69;;;20.43;43.09
44825;BME280;30542;47.928;2.138;2023-02-13T08:32:04;102188.63;;;20.45;43.09
44825;BME280;30542;47.928;2.138;2023-02-13T08:37:05;102188.16;;;20.48;43.24
44825;BME280;30542;47.928;2.138;2023-02-13T08:42:05;102188.13;;;20.54;43.33
44825;BME280;30542;47.928;2.138;2023-02-13T08:47:06;102183.75;;;20.60;43.39
44825;BME280;30542;47.928;2.138;2023-02-13T08:52:06;102164.81;;;20.62;43.23
44825;BME280;30542;47.928;2.138;2023-02-13T08:57:07;102177.00;;;20.76;43.09
44825;BME280;30542;47.928;2.138;2023-02-13T09:02:12;102185.69;;;20.90;43.14
44825;BME280;30542;47.928;2.138;2023-02-13T09:07:13;102190.97;;;20.96;42.97
44825;BME280;30542;47.928;2.138;2023-02-13T09:12:14;102195.28;;;20.97;42.94
44825;BME280;30542;47.928;2.138;2023-02-13T09:17:14;102201.00;;;21.01;42.83
44825;BME280;30542;47.928;2.138;2023-02-13T09:22:17;102180.13;;;20.91;42.71
44825;BME280;30542;47.928;2.138;2023-02-13T09:27:17;102194.53;;;21.08;42.36
44825;BME280;30542;47.928;2.138;2023-02-13T09:32:18;102188.25;;;21.15;42.10
44825;BME280;30542;47.928;2.138;2023-02-13T09:37:18;102188.19;;;21.21;42.15
44825;BME280;30542;47.928;2.138;2023-02-13T09:42:25;102183.56;;;21.10;42.08
44825;BME280;30542;47.928;2.138;2023-02-13T09:47:30;102186.63;;;21.14;41.87
44825;BME280;30542;47.928;2.138;2023-02-13T09:52:34;102198.66;;;21.23;42.07
44825;BME280;30542;47.928;2.138;2023-02-13T10:03:03;102193.81;;;21.31;41.79
44825;BME280;30542;47.928;2.138;2023-02-13T10:19:25;102185.75;;;21.31;41.78
44825;BME280;30542;47.928;2.138;2023-02-13T10:24:39;102175.81;;;21.39;41.56
44825;BME280;30542;47.928;2.138;2023-02-13T10:29:45;102182.25;;;21.49;41.50
44825;BME280;30542;47.928;2.138;2023-02-13T10:40:17;102182.31;;;21.61;41.44
44825;BME280;30542;47.928;2.138;2023-02-13T10:50:58;102180.56;;;21.67;41.81
44825;BME280;30542;47.928;2.138;2023-02-13T11:01:34;102181.13;;;21.69;41.60
44825;BME280;30542;47.928;2.138;2023-02-13T11:06:45;102178.44;;;21.69;41.51
44825;BME280;30542;47.928;2.138;2023-02-13T11:11:50;102186.03;;;21.72;41.58
44825;BME280;30542;47.928;2.138;2023-02-13T11:17:05;102183.59;;;21.70;41.49
44825;BME280;30542;47.928;2.138;2023-02-13T11:22:14;102178.44;;;21.69;41.74
44825;BME280;30542;47.928;2.138;2023-02-13T11:27:31;102177.06;;;21.66;41.83
44825;BME280;30542;47.928;2.138;2023-02-13T11:32:33;102178.94;;;21.66;41.69
44825;BME280;30542;47.928;2.138;2023-02-13T11:37:34;102167.59;;;21.64;41.81
44825;BME280;30542;47.928;2.138;2023-02-13T11:42:35;102166.78;;;21.63;41.79
44825;BME280;30542;47.928;2.138;2023-02-13T11:47:40;102149.16;;;21.55;41.83
44825;BME280;30542;47.928;2.138;2023-02-13T11:52:41;102147.53;;;21.54;41.75
44825;BME280;30542;47.928;2.138;2023-02-13T11:57:55;102154.88;;;21.59;41.91
44825;BME280;30542;47.928;2.138;2023-02-13T12:02:55;102154.31;;;21.57;41.80
44825;BME280;30542;47.928;2.138;2023-02-13T12:07:59;102148.09;;;21.56;42.06
44825;BME280;30542;47.928;2.138;2023-02-13T12:18:27;102122.47;;;21.49;41.82
44825;BME280;30542;47.928;2.138;2023-02-13T12:23:41;102128.75;;;21.54;42.00
44825;BME280;30542;47.928;2.138;2023-02-13T12:39:25;102119.41;;;21.45;41.70
44825;BME280;30542;47.928;2.138;2023-02-13T12:49:47;102113.94;;;21.40;42.32
44825;BME280;30542;47.928;2.138;2023-02-13T13:26:21;102080.50;;;21.13;42.76
44825;BME280;30542;47.928;2.138;2023-02-13T13:31:25;102081.31;;;21.13;42.65
44825;BME280;30542;47.928;2.138;2023-02-13T13:42:07;102078.50;;;21.08;42.90
44825;BME280;30542;47.928;2.138;2023-02-13T13:52:32;102064.97;;;21.03;42.94
44825;BME280;30542;47.928;2.138;2023-02-13T14:02:51;102066.47;;;20.99;43.05
44825;BME280;30542;47.928;2.138;2023-02-13T14:13:39;102061.78;;;20.94;43.04
44825;BME280;30542;47.928;2.138;2023-02-13T14:18:44;102072.72;;;20.93;43.12
44825;BME280;30542;47.928;2.138;2023-02-13T14:23:47;102041.59;;;20.80;43.07
44825;BME280;30542;47.928;2.138;2023-02-13T14:39:33;102045.44;;;20.84;43.19
44825;BME280;30542;47.928;2.138;2023-02-13T14:44:46;102057.22;;;20.83;43.20
44825;BME280;30542;47.928;2.138;2023-02-13T14:49:50;102042.03;;;20.77;43.20
44825;BME280;30542;47.928;2.138;2023-02-13T14:54:59;102038.66;;;20.70;43.11
44825;BME280;30542;47.928;2.138;2023-02-13T15:00:33;102053.34;;;20.79;43.33
44825;BME280;30542;47.928;2.138;2023-02-13T15:05:37;102043.34;;;20.74;43.30
44825;BME280;30542;47.928;2.138;2023-02-13T15:10:46;102050.06;;;20.77;43.28
44825;BME280;30542;47.928;2.138;2023-02-13T15:15:59;102047.88;;;20.74;43.38
44825;BME280;30542;47.928;2.138;2023-02-13T15:21:01;102058.59;;;20.74;43.38
44825;BME280;30542;47.928;2.138;2023-02-13T15:26:05;102058.09;;;20.77;43.76
44825;BME280;30542;47.928;2.138;2023-02-13T15:31:20;102056.47;;;20.76;43.67
44825;BME280;30542;47.928;2.138;2023-02-13T15:36:24;102055.06;;;20.73;43.65
44825;BME280;30542;47.928;2.138;2023-02-13T15:41:31;102049.94;;;20.72;43.61
44825;BME280;30542;47.928;2.138;2023-02-13T15:46:34;102042.16;;;20.70;43.49
44825;BME280;30542;47.928;2.138;2023-02-13T15:51:35;102043.16;;;20.69;43.56
44825;BME280;30542;47.928;2.138;2023-02-13T15:56:36;102045.03;;;20.69;43.46
44825;BME280;30542;47.928;2.138;2023-02-13T16:01:38;102042.84;;;20.66;43.66
44825;BME280;30542;47.928;2.138;2023-02-13T16:06:41;102040.72;;;20.68;43.65
44825;BME280;30542;47.928;2.138;2023-02-13T16:11:43;102029.88;;;20.63;43.64
44825;BME280;30542;47.928;2.138;2023-02-13T16:16:46;102041.41;;;20.63;43.23
44825;BME280;30542;47.928;2.138;2023-02-13T16:21:48;102033.81;;;20.60;43.59
44825;BME280;30542;47.928;2.138;2023-02-13T16:26:49;102030.78;;;20.56;43.63
44825;BME280;30542;47.928;2.138;2023-02-13T16:31:51;102028.34;;;20.55;43.76
44825;BME280;30542;47.928;2.138;2023-02-13T16:36:53;102039.47;;;20.52;43.74
44825;BME280;30542;47.928;2.138;2023-02-13T16:41:55;102041.34;;;20.51;43.57
44825;BME280;30542;47.928;2.138;2023-02-13T17:07:27;102052.88;;;20.52;43.50
44825;BME280;30542;47.928;2.138;2023-02-13T17:12:29;102063.38;;;20.53;43.55
44825;BME280;30542;47.928;2.138;2023-02-13T17:17:30;102065.00;;;20.54;43.40
44825;BME280;30542;47.928;2.138;2023-02-13T17:22:37;102058.72;;;20.42;43.49
44825;BME280;30542;47.928;2.138;2023-02-13T17:27:38;102073.31;;;20.46;43.46
44825;BME280;30542;47.928;2.138;2023-02-13T17:32:39;102081.34;;;20.46;43.43
44825;BME280;30542;47.928;2.138;2023-02-13T17:37:40;102070.13;;;20.38;43.31
44825;BME280;30542;47.928;2.138;2023-02-13T17:42:43;102094.94;;;20.45;43.48
44825;BME280;30542;47.928;2.138;2023-02-13T17:47:44;102093.53;;;20.42;43.47
44825;BME280;30542;47.928;2.138;2023-02-13T17:52:46;102094.09;;;20.44;43.37
44825;BME280;30542;47.928;2.138;2023-02-13T17:57:49;102100.06;;;20.46;43.43
44825;BME280;30542;47.928;2.138;2023-02-13T18:02:50;102095.38;;;20.42;43.36
44825;BME280;30542;47.928;2.138;2023-02-13T18:07:50;102100.69;;;20.48;43.52
44825;BME280;30542;47.928;2.138;2023-02-13T18:12:51;102093.66;;;20.47;43.29
44825;BME280;30542;47.928;2.138;2023-02-13T18:17:52;102105.41;;;20.46;43.61
44825;BME280;30542;47.928;2.138;2023-02-13T18:22:53;102097.16;;;20.48;43.58
44825;BME280;30542;47.928;2.138;2023-02-13T18:27:53;102097.16;;;20.48;43.31
44825;BME280;30542;47.928;2.138;2023-02-13T18:32:55;102106.63;;;20.50;43.28
44825;BME280;30542;47.928;2.138;2023-02-13T18:37:57;102106.63;;;20.50;43.22
44825;BME280;30542;47.928;2.138;2023-02-13T18:42:57;102105.59;;;20.51;43.35
44825;BME280;30542;47.928;2.138;2023-02-13T18:47:58;102096.75;;;20.51;43.33
44825;BME280;30542;47.928;2.138;2023-02-13T18:52:58;102101.28;;;20.50;43.43
44825;BME280;30542;47.928;2.138;2023-02-13T18:57:59;102089.38;;;20.46;43.36
44825;BME280;30542;47.928;2.138;2023-02-13T19:03:01;102097.56;;;20.51;43.38
44825;BME280;30542;47.928;2.138;2023-02-13T19:08:02;102089.53;;;20.51;43.68
44825;BME280;30542;47.928;2.138;2023-02-13T19:13:04;102100.03;;;20.53;43.57
44825;BME280;30542;47.928;2.138;2023-02-13T19:18:05;102083.78;;;20.48;43.56
44825;BME280;30542;47.928;2.138;2023-02-13T19:23:05;102078.28;;;20.43;43.84
44825;BME280;30542;47.928;2.138;2023-02-13T19:28:06;102097.56;;;20.51;43.61
44825;BME280;30542;47.928;2.138;2023-02-13T19:33:06;102094.88;;;20.51;43.63
44825;BME280;30542;47.928;2.138;2023-02-13T19:38:07;102088.94;;;20.49;43.89
44825;BME280;30542;47.928;2.138;2023-02-13T19:43:07;102097.34;;;20.53;43.58
44825;BME280;30542;47.928;2.138;2023-02-13T19:48:08;102075.38;;;20.44;43.44
44825;BME280;30542;47.928;2.138;2023-02-13T19:53:08;102096.88;;;20.56;43.50
44825;BME280;30542;47.928;2.138;2023-02-13T19:58:09;102096.31;;;20.54;43.70
44825;BME280;30542;47.928;2.138;2023-02-13T20:03:09;102102.47;;;20.54;43.66
44825;BME280;30542;47.928;2.138;2023-02-13T20:08:10;102107.84;;;20.54;43.82
44825;BME280;30542;47.928;2.138;2023-02-13T20:13:10;102107.59;;;20.56;43.61
44825;BME280;30542;47.928;2.138;2023-02-13T20:18:11;102108.66;;;20.55;43.72
44825;BME280;30542;47.928;2.138;2023-02-13T20:23:11;102106.03;;;20.48;43.66
44825;BME280;30542;47.928;2.138;2023-02-13T20:28:12;102114.81;;;20.55;43.47
44825;BME280;30542;47.928;2.138;2023-02-13T20:33:12;102112.13;;;20.55;43.36
44825;BME280;30542;47.928;2.138;2023-02-13T20:38:13;102111.19;;;20.50;43.39
44825;BME280;30542;47.928;2.138;2023-02-13T20:43:13;102116.44;;;20.56;43.37
44825;BME280;30542;47.928;2.138;2023-02-13T20:48:14;102107.38;;;20.57;43.32
44825;BME280;30542;47.928;2.138;2023-02-13T20:53:14;102117.28;;;20.57;43.14
44825;BME280;30542;47.928;2.138;2023-02-13T20:58:14;102111.94;;;20.57;43.23
44825;BME280;30542;47.928;2.138;2023-02-13T21:03:15;102118.09;;;20.57;43.21
44825;BME280;30542;47.928;2.138;2023-02-13T21:08:15;102114.81;;;20.55;43.13
44825;BME280;30542;47.928;2.138;2023-02-13T21:13:16;102110.06;;;20.57;42.93
44825;BME280;30542;47.928;2.138;2023-02-13T21:18:16;102111.69;;;20.58;42.90
44825;BME280;30542;47.928;2.138;2023-02-13T21:23:16;102115.19;;;20.59;42.91
44825;BME280;30542;47.928;2.138;2023-02-13T21:28:17;102119.97;;;20.57;42.77
44825;BME280;30542;47.928;2.138;2023-02-13T21:33:17;102114.38;;;20.58;42.91
44825;BME280;30542;47.928;2.138;2023-02-13T21:38:18;102130.44;;;20.58;42.66
44825;BME280;30542;47.928;2.138;2023-02-13T21:43:18;102118.09;;;20.57;42.84
44825;BME280;30542;47.928;2.138;2023-02-13T21:48:19;102124.47;;;20.56;42.64
44825;BME280;30542;47.928;2.138;2023-02-13T21:53:19;102124.13;;;20.53;42.63
44825;BME280;30542;47.928;2.138;2023-02-13T21:58:19;102122.28;;;20.47;42.82
44825;BME280;30542;47.928;2.138;2023-02-13T22:03:20;102130.19;;;20.42;42.92
44825;BME280;30542;47.928;2.138;2023-02-13T22:08:20;102113.75;;;20.38;42.80
44825;BME280;30542;47.928;2.138;2023-02-13T22:13:21;102119.16;;;20.31;43.01
44825;BME280;30542;47.928;2.138;2023-02-13T22:18:22;102122.06;;;20.30;42.79
44825;BME280;30542;47.928;2.138;2023-02-13T22:23:23;102123.78;;;20.24;42.66
44825;BME280;30542;47.928;2.138;2023-02-13T22:28:24;102117.63;;;20.24;42.93
44825;BME280;30542;47.928;2.138;2023-02-13T22:33:24;102104.34;;;20.10;42.67
44825;BME280;30542;47.928;2.138;2023-02-13T22:38:24;102116.25;;;20.15;42.95
44825;BME280;30542;47.928;2.138;2023-02-13T22:43:25;102125.75;;;20.10;42.91
44825;BME280;30542;47.928;2.138;2023-02-13T22:48:25;102118.63;;;20.04;42.90
44825;BME280;30542;47.928;2.138;2023-02-13T22:53:26;102111.84;;;20.02;43.29
44825;BME280;30542;47.928;2.138;2023-02-13T22:58:26;102110.63;;;19.98;43.22
44825;BME280;30542;47.928;2.138;2023-02-13T23:03:30;102105.56;;;19.90;43.36
44825;BME280;30542;47.928;2.138;2023-02-13T23:08:31;102115.03;;;19.92;43.15
44825;BME280;30542;47.928;2.138;2023-02-13T23:13:31;102098.44;;;19.83;42.86
44825;BME280;30542;47.928;2.138;2023-02-13T23:18:32;102119.16;;;19.88;42.94
44825;BME280;30542;47.928;2.138;2023-02-13T23:23:34;102113.06;;;19.81;42.93
44825;BME280;30542;47.928;2.138;2023-02-13T23:28:35;102113.72;;;19.76;42.99
44825;BME280;30542;47.928;2.138;2023-02-13T23:33:35;102109.03;;;19.72;43.08
44825;BME280;30542;47.928;2.138;2023-02-13T23:38:36;102117.91;;;19.66;43.18
44825;BME280;30542;47.928;2.138;2023-02-13T23:43:36;102108.66;;;19.61;42.87
44825;BME280;30542;47.928;2.138;2023-02-13T23:48:37;102105.81;;;19.56;43.09
44825;BME280;30542;47.928;2.138;2023-02-13T23:53:37;102099.25;;;19.52;43.05
44825;BME280;30542;47.928;2.138;2023-02-13T23:58:37;102109.13;;;19.52;42.77
